Telford Dawley, United Kingdom
Current Conditions -  °F | °C
As of 2:50 AM on Wednesday 26 Nov 2014 (Local Time) from EGOS Reporting Station
Moderate Rain Moderate Rain  
Wind Chill: 36°   Ceiling: 1100
Heat Index: 41°   Visibility: 1.2mi
Dew Point: 41°   Wind: 8mph
Humidity: 100%   Direction: 350°N
Pressure: 29.97"   Gusts: NA
Location:  52.67°N, 2.47°W
Report Text: EGOS 260250Z AUTO 35007KT 2000 RA BKN011/// SCT017/// 05/05 Q1015
Loading
Personal Weather Stations






























Interactive Weather Map New forecast layout! Learn more

10-Day Weather Forecast

Advertisements
Track Severe Weather on mobile